Raleigh, North Dakota
Current Conditions -  °F | °C
As of 11:55 PM on Wednesday 22 Oct 2014 (Local Time) from KY19 Reporting Station
Clear Clear  
Wind Chill:   Ceiling: Unl
Heat Index:   Visibility: 10mi
Dew Point:   Wind: 7mph
Humidity: 61%   Direction: 240°WSW
Pressure: 29.93"   Gusts: NA
Location:  46.36°N, 101.31°W
Report Text: KY19 230555Z AUTO 24006KT 10SM CLR 07/00 A2993 RMK AO2
Loading
Personal Weather Stations






























Interactive Weather Map
Tropical Storm Tracking
New forecast layout! Learn more

10-Day Weather Forecast

Advertisements
Track Severe Weather on mobile